LIBDLGRP

Guest
Details From LIBD - Bari Palese Macchie
To LGRP - DIAGORAS
Flight Number -
Tags generated
Created
Modified
Stats Distance 607 nm / 1,123 km
Max Altitude 31,000 ft / 9,449 m
Waypoints 13
Social Downloads 0
Likes 0
Share VATSIM

Download

Looking for another format? Having issues loading an existing format? Contact us
Advertisement - Login to hide

Notes

Basic altitude profile: - Ascent Rate: 2500ft/min - Ascent Speed: 250kts - Cruise Altitude: 35000ft - Cruise Speed: 420kts - Descent Rate: 1500ft/min - Descent Speed: 250kts Options: - Use NATs: no - Use PACOTS: no - Use low airways: yes - Use high airways: no

Route

LIBD ORSOM A14 TIGRA L995 AKINA LGRP

ID Type Via Altitude Latitude Longitude Leg Dist Tot Dist Heading (true) Name
O LIBD APT - 0 ft / 0 m 41.13787˚ 16.75832˚ - 0 nm - Bari Palese Macchie
ORSOM FIX - 31,000 ft / 9,449 m 40.36583˚ 18.44667˚ 89 nm 89 nm 121° / 122° -
TIGRA FIX A14 (AWY-LO) 19,500 ft / 5,944 m 40.05667˚ 19.00000˚ 31 nm 121 nm 126° / 126° -
KRK VOR L995 (AWY-LO) 23,500 ft / 7,163 m 39.44389˚ 20.07278˚ 61 nm 182 nm 126° / 127° KERKIRA VOR-DME
VARDI FIX L995 (AWY-LO) 23,500 ft / 7,163 m 38.67194˚ 21.95111˚ 99 nm 281 nm 117° / 118° -
GERMI FIX L995 (AWY-LO) 23,500 ft / 7,163 m 38.16556˚ 23.12444˚ 63 nm 345 nm 118° / 119° -
ATV VOR L995 (AWY-LO) 23,500 ft / 7,163 m 37.88861˚ 23.81444˚ 36 nm 381 nm 117° / 117° ATHINAI VOR-DME
KEA VOR L995 (AWY-LO) 23,500 ft / 7,163 m 37.55719˚ 24.29783˚ 30 nm 412 nm 131° / 131° KEA VOR-DME
VARIX FIX L995 (AWY-LO) 23,500 ft / 7,163 m 37.36389˚ 25.03417˚ 36 nm 449 nm 108° / 109° -
RIPLI FIX L995 (AWY-LO) 23,500 ft / 7,163 m 37.27583˚ 25.36278˚ 16 nm 465 nm 109° / 109° -
PIDAX FIX L995 (AWY-LO) 23,500 ft / 7,163 m 37.22806˚ 25.51139˚ 7 nm 473 nm 112° / 112° -
AKINA FIX L995 (AWY-LO) 19,300 ft / 5,883 m 36.98028˚ 26.24861˚ 38 nm 511 nm 113° / 113° -
O LGRP APT - 0 ft / 0 m 36.40542˚ 28.08619˚ 94 nm 606 nm 111° / 112° DIAGORAS

Altitude Profile

Advertisement - Login to hide

Weather


0- 5 10 15 20 25 30 35+ Temperature / ° C

Clouds and Precipitation
Forecast for 2017-12-14 00:00 UTC. Updated an hour ago

Ground ~20,000 ft ~40,000 ft Winds

LIBD

Details ICAO LIBD (BRI)
Name Bari Palese Macchie
Region Italy
Timezone Europe/Rome (UTC+1.0)
Stats Elevation 177 ft / 54 m (AMSL)
Location 41.137865° 16.758318°
Runways 1
Magnetic Variation 3.737° E

METAR

LIBD 140020Z 26005KT CAVOK 06/04 Q1017

Decode

TAF

TAF LIBD 132300Z 1400/1424 25012KT 9999 SCT030= TAF LIBP 132300Z 1400/1424 22008KT 9999 SCT020 BECMG 1408/1410 22015G25KT

Decode

Departure Runways

ID Width Length Bearing (true) Bearing (mag) Surface Threshold Offset Overrun Length
07 148 ft / 45 m 9,262 ft / 2,823 m 69.39° 65.65° Asphalt 1,257 ft / 383 m 0 ft / 0 m
25 148 ft / 45 m 9,262 ft / 2,823 m 249.42° 245.68° Asphalt 0 ft / 0 m 194 ft / 59 m

LGRP

Details ICAO LGRP (RHO)
Name DIAGORAS
Region Greece
Timezone Europe/Athens (UTC+2.0)
Stats Elevation 17 ft / 5 m (AMSL)
Location 36.405420° 28.086193°
Runways 1
Magnetic Variation 4.780° E

METAR

LGRP 140020Z 29009KT 9999 FEW015 16/13 Q1018 NOSIG

Decode

TAF

TAF LGRP 132300Z 1400/1424 28015KT 9999 FEW015 TEMPO 1400/1418 FEW015 SCT030

Decode

Destination Runways

ID Width Length Bearing (true) Bearing (mag) Surface Threshold Offset Overrun Length
07 148 ft / 45 m 10,830 ft / 3,301 m 69.97° 65.19° Asphalt 0 ft / 0 m 0 ft / 0 m
25 148 ft / 45 m 10,830 ft / 3,301 m 249.99° 245.21° Asphalt 0 ft / 0 m 0 ft / 0 m

Approach Navaids

Runway Type Ident Frequency Range Bearing (true) Bearing (mag) Slope Elevation
25 Localiser IRDS 110.30 MHz 18 nm / 33 km 250.45° 245.67° - 17 ft / 5 m (AMSL)
25 Glidescope IRDS 110.30 MHz 10 nm / 19 km 249.98° 245.20° 3.00° 17 ft / 5 m (AMSL)

Popular Alternatives